createdAt,value
2017-09-05T00:01:29.232Z,5.30
2017-09-05T00:03:57.503Z,5.60
2017-09-05T00:06:25.890Z,4.90
2017-09-05T00:08:56.672Z,5.35
2017-09-05T00:11:30.531Z,5.10
2017-09-05T00:13:59.284Z,5.45
2017-09-05T00:16:32.563Z,4.87
2017-09-05T00:19:00.853Z,5.18
2017-09-05T00:21:45.748Z,4.62
2017-09-05T00:24:14.024Z,4.62
2017-09-05T00:26:42.300Z,5.10
2017-09-05T00:29:11.352Z,4.95
2017-09-05T00:31:40.549Z,4.75
2017-09-05T00:34:08.863Z,4.55
2017-09-05T00:36:37.111Z,4.93
2017-09-05T00:39:05.388Z,4.72
2017-09-05T00:41:33.672Z,4.80
2017-09-05T00:44:01.940Z,5.65
2017-09-05T00:46:30.255Z,5.53
2017-09-05T00:48:58.525Z,5.65
2017-09-05T00:51:26.803Z,5.82
2017-09-05T00:53:55.100Z,5.60
2017-09-05T00:56:23.375Z,5.07
2017-09-05T00:58:51.703Z,5.80
2017-09-05T01:01:19.963Z,5.12
2017-09-05T01:03:48.251Z,4.80
2017-09-05T01:06:16.569Z,5.75
2017-09-05T01:08:44.848Z,4.93
2017-09-05T01:11:13.183Z,5.70
2017-09-05T01:13:41.470Z,5.00
2017-09-05T01:16:09.755Z,5.53
2017-09-05T01:18:38.051Z,4.80
2017-09-05T01:21:06.315Z,5.90
2017-09-05T01:23:34.622Z,4.80
2017-09-05T01:26:02.880Z,4.90
2017-09-05T01:28:31.143Z,5.28
2017-09-05T01:30:59.421Z,4.20
2017-09-05T01:33:27.687Z,5.30
2017-09-05T01:35:55.978Z,6.00
2017-09-05T01:38:24.264Z,4.85
2017-09-05T01:40:52.531Z,5.55
2017-09-05T01:43:20.811Z,4.97
2017-09-05T01:45:49.084Z,5.55
2017-09-05T01:48:17.385Z,5.18
2017-09-05T01:50:45.677Z,5.25
2017-09-05T01:53:13.967Z,5.40
2017-09-05T01:55:42.249Z,5.35
2017-09-05T01:58:10.496Z,5.50
2017-09-05T02:00:38.805Z,4.93
2017-09-05T02:03:07.149Z,5.45
2017-09-05T02:05:35.414Z,4.65
2017-09-05T02:08:03.696Z,4.90
2017-09-05T02:10:31.971Z,5.65
2017-09-05T02:13:00.264Z,5.15
2017-09-05T02:15:28.532Z,4.93
2017-09-05T02:17:56.795Z,4.50
2017-09-05T02:20:25.067Z,4.70
2017-09-05T02:22:53.332Z,5.05
2017-09-05T02:25:21.643Z,4.68
2017-09-05T02:27:49.901Z,5.45
2017-09-05T02:30:18.167Z,4.68
2017-09-05T02:32:46.452Z,5.37
2017-09-05T02:35:14.719Z,4.55
2017-09-05T02:37:43.038Z,4.70
2017-09-05T02:40:11.288Z,4.50
2017-09-05T02:42:39.572Z,5.15
2017-09-05T02:45:07.849Z,5.25
2017-09-05T02:47:36.113Z,5.93
2017-09-05T02:50:04.395Z,4.55
2017-09-05T02:52:32.673Z,4.87
2017-09-05T02:55:00.944Z,4.22
2017-09-05T02:57:29.981Z,4.40
2017-09-05T02:59:58.389Z,4.85
2017-09-05T03:02:26.658Z,5.78
2017-09-05T03:04:54.913Z,5.00
2017-09-05T03:07:23.200Z,4.72
2017-09-05T03:09:51.476Z,4.97
2017-09-05T03:12:19.777Z,5.90
2017-09-05T03:14:48.036Z,4.68
2017-09-05T03:17:16.304Z,4.75
2017-09-05T03:19:44.596Z,5.35
2017-09-05T03:22:12.875Z,5.40
2017-09-05T03:24:41.180Z,5.05
2017-09-05T03:27:09.464Z,5.05
2017-09-05T03:29:38.487Z,4.78
2017-09-05T03:32:06.779Z,4.97
2017-09-05T03:34:35.039Z,5.40
2017-09-05T03:37:03.343Z,4.78
2017-09-05T03:39:31.611Z,4.80
2017-09-05T03:41:59.883Z,5.30
2017-09-05T03:44:28.175Z,5.30
2017-09-05T03:46:56.442Z,5.60
2017-09-05T03:49:24.749Z,6.20
2017-09-05T03:51:53.007Z,5.47
2017-09-05T03:54:21.275Z,5.55
2017-09-05T03:56:49.544Z,6.55
2017-09-05T03:59:17.800Z,5.50
2017-09-05T04:01:46.217Z,5.10
2017-09-05T04:04:14.488Z,6.05
2017-09-05T04:06:43.511Z,5.45
2017-09-05T04:09:11.823Z,6.10
2017-09-05T04:11:40.068Z,5.00
2017-09-05T04:14:08.380Z,6.00
2017-09-05T04:16:36.635Z,6.00
2017-09-05T04:19:04.891Z,5.70
2017-09-05T04:21:33.171Z,5.30
2017-09-05T04:24:01.433Z,5.95
2017-09-05T04:26:29.712Z,5.45
2017-09-05T04:28:57.975Z,6.05
2017-09-05T04:31:26.297Z,5.97
2017-09-05T04:33:54.539Z,5.55
2017-09-05T04:36:22.820Z,6.07
2017-09-05T04:38:51.092Z,6.82
2017-09-05T04:41:19.371Z,6.25
2017-09-05T04:43:47.784Z,6.37
2017-09-05T04:46:16.051Z,6.28
2017-09-05T04:48:44.313Z,6.82
2017-09-05T04:51:12.602Z,5.62
2017-09-05T04:53:40.863Z,6.70
2017-09-05T04:56:09.948Z,5.90
2017-09-05T04:58:38.216Z,6.28
2017-09-05T05:01:06.475Z,7.10
2017-09-05T05:03:34.764Z,5.90
2017-09-05T05:06:03.030Z,6.55
2017-09-05T05:08:31.615Z,7.47
2017-09-05T05:10:59.875Z,5.57
2017-09-05T05:13:28.148Z,7.03
2017-09-05T05:15:56.427Z,6.40
2017-09-05T05:18:24.706Z,5.97
2017-09-05T05:20:53.009Z,6.68
2017-09-05T05:23:21.265Z,6.80
2017-09-05T05:25:49.561Z,6.35
2017-09-05T05:28:17.820Z,7.53
2017-09-05T05:30:46.084Z,7.62
2017-09-05T05:33:15.134Z,6.50
2017-09-05T05:35:43.402Z,6.53
2017-09-05T05:38:11.728Z,6.82
2017-09-05T05:40:40.000Z,6.28
2017-09-05T05:43:08.276Z,6.25
2017-09-05T05:45:36.552Z,7.57
2017-09-05T05:48:04.828Z,6.55
2017-09-05T05:50:33.140Z,6.62
2017-09-05T05:53:01.407Z,7.40
2017-09-05T05:55:29.668Z,6.57
2017-09-05T05:57:57.980Z,6.95
2017-09-05T06:00:26.257Z,10.13
2017-09-05T06:02:54.568Z,8.10
2017-09-05T06:05:22.852Z,7.53
2017-09-05T06:07:51.123Z,20.05
2017-09-05T06:10:19.428Z,44.75
2017-09-05T06:12:47.700Z,8.82
2017-09-05T06:15:16.019Z,9.23
2017-09-05T06:17:44.313Z,7.68
2017-09-05T06:20:12.632Z,12.90
2017-09-05T06:22:40.929Z,7.35
2017-09-05T06:25:09.204Z,8.93
2017-09-05T06:27:37.503Z,8.63
2017-09-05T06:30:05.789Z,8.20
2017-09-05T06:32:34.112Z,7.50
2017-09-05T06:35:02.394Z,7.15
2017-09-05T06:37:30.664Z,6.50
2017-09-05T06:39:58.963Z,6.80
2017-09-05T06:42:27.220Z,7.43
2017-09-05T06:44:55.533Z,7.18
2017-09-05T06:47:23.807Z,7.00
2017-09-05T06:49:52.081Z,6.45
2017-09-05T06:52:20.363Z,6.87
2017-09-05T06:54:48.639Z,6.87
2017-09-05T06:57:16.920Z,7.00
2017-09-05T06:59:45.197Z,5.75
2017-09-05T07:02:13.667Z,6.25
2017-09-05T07:04:41.932Z,6.00
2017-09-05T07:07:10.261Z,6.72
2017-09-05T07:09:38.552Z,6.22
2017-09-05T07:12:06.827Z,6.68
2017-09-05T07:14:35.139Z,7.25
2017-09-05T07:17:03.415Z,6.90
2017-09-05T07:19:31.696Z,6.40
2017-09-05T07:21:59.979Z,6.20
2017-09-05T07:24:28.244Z,6.15
2017-09-05T07:26:56.559Z,6.05
2017-09-05T07:29:24.843Z,6.07
2017-09-05T07:31:53.124Z,6.35
2017-09-05T07:34:21.417Z,5.85
2017-09-05T07:36:50.035Z,6.03
2017-09-05T07:39:18.341Z,4.80
2017-09-05T07:41:46.655Z,4.97
2017-09-05T07:44:14.928Z,5.40
2017-09-05T07:46:43.204Z,6.55
2017-09-05T07:49:11.516Z,5.35
2017-09-05T07:51:39.783Z,6.12
2017-09-05T07:54:08.080Z,5.62
2017-09-05T07:56:36.343Z,5.37
2017-09-05T07:59:04.629Z,6.95
2017-09-05T08:01:32.900Z,4.75
2017-09-05T08:04:01.219Z,4.75
2017-09-05T08:06:29.500Z,4.62
2017-09-05T08:08:57.773Z,4.90
2017-09-05T08:11:26.072Z,5.90
2017-09-05T08:13:54.345Z,4.60
2017-09-05T08:16:22.616Z,5.20
2017-09-05T08:18:51.663Z,5.12
2017-09-05T08:21:19.935Z,5.37
2017-09-05T08:23:48.246Z,6.40
2017-09-05T08:26:16.508Z,4.78
2017-09-05T08:28:44.785Z,5.97
2017-09-05T08:31:13.074Z,6.75
2017-09-05T08:33:41.360Z,5.55
2017-09-05T08:36:09.684Z,5.78
2017-09-05T08:38:37.960Z,6.05
2017-09-05T08:41:06.240Z,5.85
2017-09-05T08:43:34.620Z,5.62
2017-09-05T08:46:02.896Z,6.60
2017-09-05T08:48:31.203Z,6.65
2017-09-05T08:50:59.480Z,7.10
2017-09-05T08:53:27.755Z,6.22
2017-09-05T08:55:56.051Z,7.10
2017-09-05T08:58:24.338Z,5.82
2017-09-05T09:00:52.673Z,6.90
2017-09-05T09:03:20.950Z,7.12
2017-09-05T09:05:49.236Z,6.07
2017-09-05T09:08:17.524Z,6.45
2017-09-05T09:10:45.845Z,6.93
2017-09-05T09:13:14.192Z,6.03
2017-09-05T09:15:42.540Z,6.50
2017-09-05T09:18:10.831Z,6.00
2017-09-05T09:20:39.168Z,5.68
2017-09-05T09:23:07.444Z,6.87
2017-09-05T09:25:35.776Z,6.18
2017-09-05T09:28:04.103Z,5.90
2017-09-05T09:30:32.508Z,5.60
2017-09-05T09:33:00.792Z,5.87
2017-09-05T09:35:29.088Z,4.80
2017-09-05T09:37:57.376Z,5.32
2017-09-05T09:40:25.656Z,4.95
2017-09-05T09:42:53.965Z,5.10
2017-09-05T09:45:22.239Z,4.90
2017-09-05T09:47:50.504Z,4.55
2017-09-05T09:50:18.813Z,4.43
2017-09-05T09:52:47.069Z,5.70
2017-09-05T09:55:15.352Z,5.25
2017-09-05T09:57:43.653Z,5.43
2017-09-05T10:00:11.952Z,5.32
2017-09-05T10:02:40.246Z,5.50
2017-09-05T10:05:08.580Z,6.25
2017-09-05T10:07:36.863Z,5.20
2017-09-05T10:10:05.140Z,5.95
2017-09-05T10:12:33.448Z,6.28
2017-09-05T10:15:01.763Z,5.95
2017-09-05T10:17:30.058Z,5.15
2017-09-05T10:19:58.323Z,5.80
2017-09-05T10:22:26.668Z,5.57
2017-09-05T10:24:54.951Z,6.43
2017-09-05T10:27:23.993Z,5.70
2017-09-05T10:29:52.288Z,5.40
2017-09-05T10:32:20.564Z,5.07
2017-09-05T10:34:49.113Z,5.40
2017-09-05T10:37:17.388Z,5.50
2017-09-05T10:39:45.695Z,6.20
2017-09-05T10:42:13.990Z,5.80
2017-09-05T10:44:42.261Z,5.55
2017-09-05T10:47:10.559Z,4.97
2017-09-05T10:49:38.855Z,4.90
2017-09-05T10:52:07.116Z,6.10
2017-09-05T10:54:35.404Z,5.03
2017-09-05T10:57:03.671Z,5.70
2017-09-05T10:59:31.991Z,5.70
2017-09-05T11:02:00.284Z,5.80
2017-09-05T11:04:28.562Z,4.78
2017-09-05T11:06:56.884Z,3.67
2017-09-05T11:09:25.152Z,3.83
2017-09-05T11:11:53.469Z,3.58
2017-09-05T11:14:21.752Z,3.45
2017-09-05T11:16:50.016Z,3.65
2017-09-05T11:19:18.307Z,3.30
2017-09-05T11:21:46.907Z,3.12
2017-09-05T11:24:15.299Z,3.55
2017-09-05T11:26:43.572Z,3.90
2017-09-05T11:29:11.855Z,4.20
2017-09-05T11:31:40.148Z,3.80
2017-09-05T11:34:08.436Z,3.20
2017-09-05T11:36:36.747Z,3.80
2017-09-05T11:39:05.024Z,3.67
2017-09-05T11:41:33.291Z,3.78
2017-09-05T11:44:01.587Z,3.90
2017-09-05T11:46:29.884Z,3.62
2017-09-05T11:48:58.160Z,3.33
2017-09-05T11:51:27.236Z,3.33
2017-09-05T11:53:55.512Z,3.50
2017-09-05T11:56:23.792Z,3.75
2017-09-05T11:58:52.079Z,2.85
2017-09-05T12:01:20.352Z,2.97
2017-09-05T12:03:48.857Z,2.70
2017-09-05T12:06:17.155Z,3.60
2017-09-05T12:08:45.461Z,2.72
2017-09-05T12:11:13.776Z,2.60
2017-09-05T12:13:42.043Z,3.60
2017-09-05T12:16:10.352Z,3.28
2017-09-05T12:18:38.718Z,3.08
2017-09-05T12:21:07.031Z,3.85
2017-09-05T12:23:35.304Z,3.35
2017-09-05T12:26:03.580Z,2.90
2017-09-05T12:28:31.863Z,2.78
2017-09-05T12:31:00.168Z,3.20
2017-09-05T12:33:28.496Z,2.95
2017-09-05T12:35:56.811Z,3.08
2017-09-05T12:38:25.081Z,3.10
2017-09-05T12:40:54.144Z,3.00
2017-09-05T12:43:22.434Z,2.97
2017-09-05T12:45:50.752Z,2.90
2017-09-05T12:48:19.032Z,2.70
2017-09-05T12:50:47.307Z,2.62
2017-09-05T12:53:15.608Z,2.40
2017-09-05T12:55:43.887Z,2.30
2017-09-05T12:58:12.201Z,3.10
2017-09-05T13:00:40.479Z,3.05
2017-09-05T13:03:08.778Z,2.50
2017-09-05T13:05:37.069Z,2.53
2017-09-05T13:08:05.346Z,2.30
2017-09-05T13:10:33.644Z,2.65
2017-09-05T13:13:01.920Z,3.15
2017-09-05T13:15:30.196Z,3.17
2017-09-05T13:17:58.504Z,2.47
2017-09-05T13:20:26.812Z,2.70
2017-09-05T13:22:55.128Z,2.70
2017-09-05T13:25:23.405Z,2.90
2017-09-05T13:27:51.695Z,2.40
2017-09-05T13:30:19.987Z,2.55
2017-09-05T13:32:48.273Z,2.40
2017-09-05T13:35:16.581Z,2.47
2017-09-05T13:37:44.863Z,2.75
2017-09-05T13:40:13.143Z,2.62
2017-09-05T13:42:41.444Z,2.40
2017-09-05T13:45:09.743Z,3.08
2017-09-05T13:47:38.053Z,2.45
2017-09-05T13:50:06.321Z,2.37
2017-09-05T13:52:35.375Z,2.50
2017-09-05T13:55:03.667Z,2.42
2017-09-05T13:57:32.706Z,2.30
2017-09-05T14:00:01.047Z,2.40
2017-09-05T14:02:29.320Z,2.20
2017-09-05T14:04:57.592Z,2.00
2017-09-05T14:07:25.879Z,2.50
2017-09-05T14:09:54.148Z,2.28
2017-09-05T14:12:22.480Z,2.00
2017-09-05T14:14:50.764Z,1.70
2017-09-05T14:17:19.049Z,2.33
2017-09-05T14:19:47.352Z,2.20
2017-09-05T14:22:15.630Z,2.58
2017-09-05T14:24:43.915Z,2.00
2017-09-05T14:27:12.193Z,1.90
2017-09-05T14:29:40.531Z,1.97
2017-09-05T14:32:08.820Z,1.90
2017-09-05T14:34:37.093Z,2.23
2017-09-05T14:37:05.379Z,1.43
2017-09-05T14:39:33.644Z,2.30
2017-09-05T14:42:01.931Z,1.80
2017-09-05T14:44:30.212Z,1.67
2017-09-05T14:46:58.527Z,1.97
2017-09-05T14:49:26.800Z,2.00
2017-09-05T14:51:55.245Z,2.73
2017-09-05T14:54:23.544Z,2.30
2017-09-05T14:56:51.807Z,1.60
2017-09-05T14:59:20.084Z,1.83
2017-09-05T15:01:48.362Z,2.20
2017-09-05T15:04:16.679Z,2.07
2017-09-05T15:06:44.963Z,1.80
2017-09-05T15:09:13.239Z,2.30
2017-09-05T15:11:41.555Z,1.87
2017-09-05T15:14:09.827Z,1.80
2017-09-05T15:16:38.299Z,2.07
2017-09-05T15:19:06.576Z,3.57
2017-09-05T15:21:35.624Z,1.80
2017-09-05T15:24:03.930Z,1.70
2017-09-05T15:26:32.200Z,2.30
2017-09-05T15:29:00.520Z,2.40
2017-09-05T15:31:28.800Z,2.37
2017-09-05T15:33:57.076Z,1.67
2017-09-05T15:36:25.387Z,2.22
2017-09-05T15:38:53.696Z,2.00
2017-09-05T15:41:21.969Z,2.45
2017-09-05T15:43:50.248Z,2.87
2017-09-05T15:46:18.545Z,2.35
2017-09-05T15:48:46.875Z,1.80
2017-09-05T15:51:15.163Z,2.20
2017-09-05T15:53:43.445Z,2.45
2017-09-05T15:56:11.739Z,2.53
2017-09-05T15:58:40.029Z,2.50
2017-09-05T16:01:08.323Z,2.00
2017-09-05T16:03:36.592Z,2.12
2017-09-05T16:06:05.062Z,2.17
2017-09-05T16:08:33.340Z,1.98
2017-09-05T16:11:01.692Z,2.22
2017-09-05T16:13:29.963Z,2.55
2017-09-05T16:15:58.240Z,2.80
2017-09-05T16:18:26.555Z,2.28
2017-09-05T16:20:54.837Z,2.33
2017-09-05T16:23:23.108Z,2.50
2017-09-05T16:25:51.460Z,2.28
2017-09-05T16:28:20.125Z,2.30
2017-09-05T16:30:48.421Z,2.17
2017-09-05T16:33:16.696Z,2.40
2017-09-05T16:35:45.044Z,2.30
2017-09-05T16:38:13.340Z,2.10
2017-09-05T16:40:41.616Z,2.08
2017-09-05T16:43:09.939Z,1.62
2017-09-05T16:45:38.224Z,2.05
2017-09-05T16:48:06.532Z,2.03
2017-09-05T16:50:34.800Z,2.47
2017-09-05T16:53:03.992Z,2.03
2017-09-05T16:55:32.288Z,2.37
2017-09-05T16:58:00.564Z,2.10
2017-09-05T17:00:28.886Z,2.08
2017-09-05T17:02:57.168Z,2.25
2017-09-05T17:05:25.460Z,2.33
2017-09-05T17:07:53.765Z,2.10
2017-09-05T17:10:22.052Z,2.03
2017-09-05T17:12:50.379Z,2.90
2017-09-05T17:15:18.697Z,2.40
2017-09-05T17:17:46.958Z,2.00
2017-09-05T17:20:15.255Z,2.65
2017-09-05T17:22:43.548Z,2.05
2017-09-05T17:25:11.884Z,2.60
2017-09-05T17:27:40.164Z,2.75
2017-09-05T17:30:08.436Z,2.20
2017-09-05T17:32:36.747Z,2.53
2017-09-05T17:35:05.017Z,2.65
2017-09-05T17:37:33.356Z,2.72
2017-09-05T17:40:01.631Z,2.83
2017-09-05T17:42:29.920Z,2.45
2017-09-05T17:44:58.225Z,2.60
2017-09-05T17:47:26.495Z,2.00
2017-09-05T17:49:54.875Z,2.30
2017-09-05T17:52:23.152Z,2.47
2017-09-05T17:54:52.184Z,2.50
2017-09-05T17:57:20.506Z,2.80
2017-09-05T17:59:48.772Z,2.30
2017-09-05T18:02:17.075Z,2.95
2017-09-05T18:04:45.356Z,3.12
2017-09-05T18:07:13.660Z,2.60
2017-09-05T18:09:41.938Z,2.60
2017-09-05T18:12:11.106Z,2.65
2017-09-05T18:14:39.381Z,3.17
2017-09-05T18:17:07.657Z,2.90
2017-09-05T18:19:35.947Z,2.50
2017-09-05T18:22:04.213Z,2.72
2017-09-05T18:24:32.696Z,3.17
2017-09-05T18:27:00.988Z,3.17
2017-09-05T18:29:29.299Z,2.50
2017-09-05T18:31:57.596Z,3.37
2017-09-05T18:34:25.867Z,2.92
2017-09-05T18:36:54.206Z,3.20
2017-09-05T18:39:23.235Z,3.58
2017-09-05T18:41:51.513Z,3.12
2017-09-05T18:44:19.817Z,2.95
2017-09-05T18:46:48.100Z,3.20
2017-09-05T18:49:16.397Z,3.33
2017-09-05T18:51:44.704Z,2.72
2017-09-05T18:54:13.035Z,2.60
2017-09-05T18:56:41.317Z,3.10
2017-09-05T18:59:09.603Z,3.22
2017-09-05T19:01:37.891Z,3.85
2017-09-05T19:04:06.163Z,4.22
2017-09-05T19:06:34.531Z,3.10
2017-09-05T19:09:02.783Z,2.90
2017-09-05T19:11:31.051Z,3.95
2017-09-05T19:13:59.345Z,3.50
2017-09-05T19:16:27.640Z,3.30
2017-09-05T19:18:55.950Z,2.97
2017-09-05T19:21:24.553Z,3.12
2017-09-05T19:23:52.876Z,3.15
2017-09-05T19:26:21.154Z,3.45
2017-09-05T19:28:49.471Z,2.70
2017-09-05T19:31:17.751Z,3.58
2017-09-05T19:33:46.032Z,4.40
2017-09-05T19:36:14.344Z,3.75
2017-09-05T19:38:42.613Z,4.30
2017-09-05T19:41:11.037Z,3.30
2017-09-05T19:43:40.085Z,3.05
2017-09-05T19:46:08.585Z,3.10
2017-09-05T19:48:36.870Z,3.62
2017-09-05T19:51:05.141Z,3.35
2017-09-05T19:53:33.556Z,3.35
2017-09-05T19:56:02.628Z,3.22
2017-09-05T19:58:30.887Z,4.18
2017-09-05T20:00:59.168Z,3.47
2017-09-05T20:03:27.460Z,3.25
2017-09-05T20:05:55.788Z,3.25
2017-09-05T20:08:24.063Z,3.87
2017-09-05T20:10:52.343Z,3.53
2017-09-05T20:13:20.651Z,3.40
2017-09-05T20:15:48.929Z,2.62
2017-09-05T20:18:17.216Z,3.55
2017-09-05T20:20:45.544Z,3.08
2017-09-05T20:23:13.837Z,4.25
2017-09-05T20:25:42.115Z,3.55
2017-09-05T20:28:10.437Z,3.00
2017-09-05T20:30:38.708Z,3.35
2017-09-05T20:33:07.007Z,3.17
2017-09-05T20:35:35.280Z,3.25
2017-09-05T20:38:03.568Z,4.05
2017-09-05T20:40:32.037Z,4.10
2017-09-05T20:43:00.319Z,4.50
2017-09-05T20:45:28.591Z,3.42
2017-09-05T20:47:56.896Z,3.92
2017-09-05T20:50:25.172Z,3.78
2017-09-05T20:52:53.476Z,3.53
2017-09-05T20:55:21.736Z,4.00
2017-09-05T20:57:50.007Z,3.65
2017-09-05T21:00:18.306Z,3.33
2017-09-05T21:02:46.580Z,3.20
2017-09-05T21:05:14.884Z,4.05
2017-09-05T21:07:43.147Z,3.92
2017-09-05T21:10:11.487Z,4.10
2017-09-05T21:12:39.768Z,3.28
2017-09-05T21:15:08.051Z,3.80
2017-09-05T21:17:36.337Z,3.50
2017-09-05T21:20:04.614Z,2.90
2017-09-05T21:22:32.941Z,3.78
2017-09-05T21:25:01.208Z,3.20
2017-09-05T21:27:29.505Z,3.62
2017-09-05T21:29:57.819Z,3.67
2017-09-05T21:32:26.095Z,4.25
2017-09-05T21:34:54.420Z,3.65
2017-09-05T21:37:22.696Z,4.40
2017-09-05T21:39:50.971Z,3.67
2017-09-05T21:42:19.257Z,4.10
2017-09-05T21:44:47.530Z,3.62
2017-09-05T21:47:16.213Z,3.80
2017-09-05T21:49:44.472Z,3.92
2017-09-05T21:52:12.747Z,3.40
2017-09-05T21:54:41.039Z,3.67
2017-09-05T21:57:09.330Z,3.80
2017-09-05T21:59:37.645Z,3.87
2017-09-05T22:02:05.929Z,3.33
2017-09-05T22:04:34.399Z,3.72
2017-09-05T22:07:02.758Z,3.53
2017-09-05T22:09:31.068Z,3.78
2017-09-05T22:11:59.378Z,3.97
2017-09-05T22:14:33.623Z,3.85
2017-09-05T22:17:01.896Z,4.07
2017-09-05T22:19:36.730Z,3.92
2017-09-05T22:22:05.008Z,3.87
2017-09-05T22:27:36.781Z,4.87
2017-09-05T22:30:05.104Z,4.53
2017-09-05T22:32:33.377Z,5.30
2017-09-05T22:35:01.655Z,4.35
2017-09-05T22:37:30.335Z,4.60
2017-09-05T22:39:58.597Z,5.30
2017-09-05T22:42:26.912Z,5.78
2017-09-05T22:44:55.183Z,5.05
2017-09-05T22:47:23.463Z,4.72
2017-09-05T22:49:51.757Z,3.53
2017-09-05T22:52:20.020Z,4.10
2017-09-05T22:54:48.504Z,3.75
2017-09-05T22:57:16.797Z,4.68
2017-09-05T22:59:45.067Z,4.25
2017-09-05T23:02:13.359Z,4.93
2017-09-05T23:04:41.648Z,4.70
2017-09-05T23:07:09.960Z,4.07
2017-09-05T23:09:38.228Z,3.90
2017-09-05T23:12:06.493Z,4.43
2017-09-05T23:14:34.783Z,3.83
2017-09-05T23:17:03.068Z,3.70
2017-09-05T23:19:31.377Z,3.70
2017-09-05T23:21:59.655Z,4.43
2017-09-05T23:24:27.920Z,3.75
2017-09-05T23:26:56.215Z,4.12
2017-09-05T23:29:24.500Z,4.00
2017-09-05T23:31:52.915Z,3.78
2017-09-05T23:34:21.184Z,4.28
2017-09-05T23:36:49.460Z,3.65
2017-09-05T23:39:17.779Z,3.95
2017-09-05T23:41:46.123Z,4.20
2017-09-05T23:44:14.453Z,3.80
2017-09-05T23:46:42.720Z,4.12
2017-09-05T23:49:11.004Z,4.50
2017-09-05T23:51:39.287Z,4.95
2017-09-05T23:54:07.564Z,4.15
2017-09-05T23:56:35.871Z,4.50
2017-09-05T23:59:04.146Z,5.40
